createdAt,value
2018-02-07T00:00:39.702Z,22.73
2018-02-07T00:03:06.883Z,23.50
2018-02-07T00:05:36.597Z,22.20
2018-02-07T00:08:03.842Z,23.98
2018-02-07T00:10:30.682Z,23.60
2018-02-07T00:12:57.955Z,24.65
2018-02-07T00:15:25.245Z,23.62
2018-02-07T00:17:52.185Z,22.05
2018-02-07T00:20:19.245Z,22.73
2018-02-07T00:22:46.496Z,26.33
2018-02-07T00:25:13.790Z,27.02
2018-02-07T00:27:40.989Z,25.75
2018-02-07T00:30:08.507Z,22.65
2018-02-07T00:32:35.554Z,22.77
2018-02-07T00:35:02.727Z,20.08
2018-02-07T00:37:29.645Z,18.87
2018-02-07T00:39:57.233Z,21.08
2018-02-07T00:42:24.576Z,22.23
2018-02-07T00:44:51.657Z,23.80
2018-02-07T00:47:18.682Z,25.30
2018-02-07T00:49:46.023Z,25.05
2018-02-07T00:52:13.153Z,25.33
2018-02-07T00:54:40.022Z,26.90
2018-02-07T00:57:07.037Z,27.70
2018-02-07T00:59:34.037Z,27.20
2018-02-07T01:02:01.262Z,28.55
2018-02-07T01:04:28.654Z,26.77
2018-02-07T01:06:55.515Z,27.30
2018-02-07T01:09:22.343Z,27.70
2018-02-07T01:11:49.546Z,28.30
2018-02-07T01:14:16.694Z,35.75
2018-02-07T01:16:43.877Z,34.03
2018-02-07T01:19:10.925Z,33.45
2018-02-07T01:21:38.198Z,32.15
2018-02-07T01:24:05.058Z,30.40
2018-02-07T01:26:32.003Z,31.50
2018-02-07T01:28:59.305Z,34.42
2018-02-07T01:31:26.402Z,34.55
2018-02-07T01:33:53.753Z,30.75
2018-02-07T01:36:21.113Z,30.90
2018-02-07T01:38:48.301Z,32.13
2018-02-07T01:41:15.690Z,32.47
2018-02-07T01:43:42.614Z,31.27
2018-02-07T01:46:09.734Z,33.85
2018-02-07T01:48:37.136Z,33.25
2018-02-07T01:51:04.231Z,32.13
2018-02-07T01:53:31.430Z,34.75
2018-02-07T01:55:58.590Z,33.20
2018-02-07T01:58:25.749Z,30.58
2018-02-07T02:00:53.178Z,31.12
2018-02-07T02:03:20.374Z,31.67
2018-02-07T02:05:47.458Z,31.83
2018-02-07T02:08:14.614Z,32.05
2018-02-07T02:10:41.794Z,31.77
2018-02-07T02:13:08.881Z,32.70
2018-02-07T02:15:36.027Z,31.58
2018-02-07T02:18:03.294Z,30.70
2018-02-07T02:20:30.544Z,37.50
2018-02-07T02:22:57.621Z,33.08
2018-02-07T02:25:24.428Z,33.35
2018-02-07T02:27:51.606Z,29.65
2018-02-07T02:30:18.810Z,29.27
2018-02-07T02:32:46.048Z,28.87
2018-02-07T02:35:13.669Z,32.08
2018-02-07T02:37:41.026Z,33.58
2018-02-07T02:40:08.142Z,35.67
2018-02-07T02:42:35.054Z,35.22
2018-02-07T02:45:02.226Z,33.15
2018-02-07T02:47:29.141Z,32.78
2018-02-07T02:49:56.482Z,33.15
2018-02-07T02:52:23.433Z,30.98
2018-02-07T02:54:50.760Z,31.40
2018-02-07T02:57:17.662Z,29.02
2018-02-07T02:59:44.690Z,27.98
2018-02-07T03:02:12.109Z,27.25
2018-02-07T03:04:39.473Z,26.02
2018-02-07T03:07:06.382Z,27.98
2018-02-07T03:09:33.757Z,29.02
2018-02-07T03:12:01.261Z,26.33
2018-02-07T03:14:28.402Z,26.27
2018-02-07T03:16:55.342Z,27.65
2018-02-07T03:19:22.309Z,32.00
2018-02-07T03:21:49.624Z,30.52
2018-02-07T03:24:17.233Z,30.35
2018-02-07T03:26:44.112Z,29.15
2018-02-07T03:29:11.573Z,30.65
2018-02-07T03:31:38.870Z,32.30
2018-02-07T03:34:06.282Z,32.63
2018-02-07T03:36:33.360Z,34.67
2018-02-07T03:39:00.743Z,33.42
2018-02-07T03:41:28.450Z,32.95
2018-02-07T03:43:56.773Z,32.22
2018-02-07T03:46:25.100Z,33.53
2018-02-07T03:48:53.255Z,35.65
2018-02-07T03:51:21.222Z,35.80
2018-02-07T03:53:48.846Z,32.90
2018-02-07T03:56:17.458Z,35.70
2018-02-07T03:58:44.863Z,35.42
2018-02-07T04:01:11.982Z,36.28
2018-02-07T04:03:39.294Z,36.90
2018-02-07T04:06:06.531Z,33.85
2018-02-07T04:08:33.931Z,31.67
2018-02-07T04:11:01.038Z,26.12
2018-02-07T04:13:28.289Z,22.55
2018-02-07T04:15:55.938Z,22.65
2018-02-07T04:18:22.849Z,23.73
2018-02-07T04:20:49.797Z,21.77
2018-02-07T04:23:16.879Z,20.92
2018-02-07T04:25:43.649Z,21.42
2018-02-07T04:28:10.638Z,20.67
2018-02-07T04:30:37.899Z,21.90
2018-02-07T04:33:04.875Z,18.58
2018-02-07T04:35:32.319Z,19.23
2018-02-07T04:37:59.547Z,19.65
2018-02-07T04:40:26.810Z,19.80
2018-02-07T04:42:54.419Z,20.60
2018-02-07T04:45:21.601Z,20.80
2018-02-07T04:47:48.656Z,21.27
2018-02-07T04:50:15.675Z,26.20
2018-02-07T04:52:42.554Z,30.17
2018-02-07T04:55:10.026Z,27.23
2018-02-07T04:57:37.138Z,29.52
2018-02-07T05:00:04.361Z,27.90
2018-02-07T05:02:31.807Z,35.75
2018-02-07T05:04:58.734Z,32.47
2018-02-07T05:07:26.179Z,24.48
2018-02-07T05:09:53.382Z,22.95
2018-02-07T05:12:21.505Z,23.65
2018-02-07T05:14:48.597Z,26.12
2018-02-07T05:17:15.906Z,39.05
2018-02-07T05:19:42.913Z,48.50
2018-02-07T05:22:10.510Z,58.90
2018-02-07T05:24:37.701Z,60.88
2018-02-07T05:27:04.781Z,62.30
2018-02-07T05:29:31.765Z,60.88
2018-02-07T05:31:59.394Z,58.80
2018-02-07T05:34:26.906Z,54.55
2018-02-07T05:36:54.051Z,55.58
2018-02-07T05:39:21.429Z,54.20
2018-02-07T05:41:48.915Z,43.30
2018-02-07T05:44:16.137Z,45.53
2018-02-07T05:46:43.482Z,46.67
2018-02-07T05:49:10.582Z,47.72
2018-02-07T05:51:38.168Z,37.92
2018-02-07T05:54:05.831Z,34.90
2018-02-07T05:56:32.719Z,35.75
2018-02-07T05:58:59.998Z,36.13
2018-02-07T06:01:27.334Z,45.45
2018-02-07T06:03:54.516Z,36.55
2018-02-07T06:06:21.734Z,36.28
2018-02-07T06:08:48.698Z,34.22
2018-02-07T06:11:16.188Z,35.00
2018-02-07T06:13:43.363Z,34.42
2018-02-07T06:16:10.581Z,30.48
2018-02-07T06:18:37.833Z,37.17
2018-02-07T06:21:05.253Z,34.83
2018-02-07T06:23:32.456Z,40.67
2018-02-07T06:25:59.622Z,42.10
2018-02-07T06:28:26.985Z,39.35
2018-02-07T06:30:54.314Z,42.28
2018-02-07T06:33:21.509Z,37.15
2018-02-07T06:35:48.509Z,34.22
2018-02-07T06:38:15.521Z,28.85
2018-02-07T06:40:42.894Z,24.63
2018-02-07T06:43:10.007Z,23.60
2018-02-07T06:45:37.222Z,21.77
2018-02-07T06:48:04.230Z,23.23
2018-02-07T06:50:31.459Z,23.05
2018-02-07T06:52:58.682Z,23.25
2018-02-07T06:55:26.056Z,23.40
2018-02-07T06:57:53.098Z,25.45
2018-02-07T07:00:20.484Z,22.60
2018-02-07T07:02:47.493Z,26.48
2018-02-07T07:05:14.833Z,30.23
2018-02-07T07:07:42.244Z,37.47
2018-02-07T07:10:10.003Z,38.10
2018-02-07T07:12:37.075Z,30.42
2018-02-07T07:15:04.173Z,24.05
2018-02-07T07:17:31.317Z,21.60
2018-02-07T07:19:58.528Z,23.35
2018-02-07T07:22:25.938Z,23.92
2018-02-07T07:24:52.817Z,25.23
2018-02-07T07:27:20.274Z,20.98
2018-02-07T07:29:47.239Z,22.95
2018-02-07T07:32:14.346Z,24.40
2018-02-07T07:34:41.497Z,24.45
2018-02-07T07:37:08.757Z,27.23
2018-02-07T07:39:35.766Z,23.02
2018-02-07T07:42:03.078Z,23.70
2018-02-07T07:44:30.449Z,28.00
2018-02-07T07:46:57.382Z,24.30
2018-02-07T07:49:24.406Z,25.30
2018-02-07T07:51:51.659Z,35.15
2018-02-07T07:54:18.825Z,41.47
2018-02-07T07:56:46.102Z,44.80
2018-02-07T07:59:13.286Z,44.53
2018-02-07T08:01:40.562Z,39.10
2018-02-07T08:04:07.851Z,37.60
2018-02-07T08:06:34.921Z,36.28
2018-02-07T08:09:01.965Z,38.70
2018-02-07T08:11:28.944Z,39.28
2018-02-07T08:13:56.358Z,27.80
2018-02-07T08:16:23.526Z,23.23
2018-02-07T08:18:50.647Z,26.37
2018-02-07T08:21:17.914Z,27.98
2018-02-07T08:23:45.014Z,29.42
2018-02-07T08:26:12.486Z,30.80
2018-02-07T08:28:39.525Z,32.30
2018-02-07T08:31:06.941Z,28.08
2018-02-07T08:33:34.370Z,26.35
2018-02-07T08:36:01.710Z,27.55
2018-02-07T08:38:28.957Z,31.80
2018-02-07T08:40:56.038Z,27.35
2018-02-07T08:43:23.694Z,31.42
2018-02-07T08:45:51.040Z,27.77
2018-02-07T08:48:18.433Z,27.77
2018-02-07T08:50:45.485Z,25.08
2018-02-07T08:53:13.216Z,23.67
2018-02-07T08:55:40.413Z,25.52
2018-02-07T08:58:08.006Z,26.60
2018-02-07T09:00:35.054Z,30.23
2018-02-07T09:03:02.218Z,28.90
2018-02-07T09:05:29.671Z,33.22
2018-02-07T09:07:58.010Z,34.10
2018-02-07T09:10:25.345Z,34.17
2018-02-07T09:12:52.560Z,32.03
2018-02-07T09:15:20.065Z,34.33
2018-02-07T09:17:47.588Z,33.25
2018-02-07T09:20:14.614Z,41.60
2018-02-07T09:22:42.031Z,40.50
2018-02-07T09:25:09.214Z,32.92
2018-02-07T09:27:36.758Z,34.33
2018-02-07T09:30:04.365Z,38.20
2018-02-07T09:32:31.578Z,31.25
2018-02-07T09:34:58.959Z,30.35
2018-02-07T09:37:26.417Z,29.02
2018-02-07T09:39:53.883Z,30.33
2018-02-07T09:42:21.223Z,30.02
2018-02-07T09:44:48.900Z,31.08
2018-02-07T09:47:16.274Z,30.98
2018-02-07T09:49:44.122Z,31.70
2018-02-07T09:52:11.290Z,41.03
2018-02-07T09:54:38.824Z,43.50
2018-02-07T09:57:05.753Z,45.08
2018-02-07T09:59:32.850Z,46.50
2018-02-07T10:02:00.371Z,40.20
2018-02-07T10:04:28.249Z,35.25
2018-02-07T10:06:55.718Z,28.77
2018-02-07T10:09:23.130Z,26.23
2018-02-07T10:11:50.547Z,22.17
2018-02-07T10:14:18.055Z,21.12
2018-02-07T10:16:45.186Z,20.77
2018-02-07T10:19:12.252Z,24.95
2018-02-07T10:21:39.433Z,22.27
2018-02-07T10:24:06.563Z,16.90
2018-02-07T10:26:33.790Z,17.30
2018-02-07T10:29:01.047Z,16.25
2018-02-07T10:31:28.474Z,17.45
2018-02-07T10:33:55.858Z,14.23
2018-02-07T10:36:23.311Z,14.40
2018-02-07T10:38:50.987Z,14.48
2018-02-07T10:41:18.206Z,12.95
2018-02-07T10:43:45.594Z,12.07
2018-02-07T10:46:12.994Z,10.65
2018-02-07T10:48:40.668Z,10.73
2018-02-07T10:51:07.677Z,10.83
2018-02-07T10:53:34.810Z,9.77
2018-02-07T10:56:01.946Z,9.87
2018-02-07T10:58:29.211Z,9.77
2018-02-07T11:00:56.385Z,8.17
2018-02-07T11:03:23.443Z,8.00
2018-02-07T11:05:50.597Z,9.23
2018-02-07T11:08:17.736Z,7.60
2018-02-07T11:10:45.186Z,8.57
2018-02-07T11:13:12.474Z,7.53
2018-02-07T11:15:39.518Z,8.23
2018-02-07T11:18:06.597Z,7.73
2018-02-07T11:20:33.736Z,8.17
2018-02-07T11:23:00.670Z,11.17
2018-02-07T11:25:28.033Z,11.07
2018-02-07T11:27:55.536Z,11.23
2018-02-07T11:30:23.014Z,10.70
2018-02-07T11:32:50.330Z,12.00
2018-02-07T11:35:17.198Z,13.32
2018-02-07T11:37:44.414Z,12.03
2018-02-07T11:40:11.505Z,14.87
2018-02-07T11:42:38.520Z,12.82
2018-02-07T11:45:05.545Z,12.53
2018-02-07T11:47:32.718Z,11.75
2018-02-07T11:50:00.460Z,11.95
2018-02-07T11:52:27.935Z,10.07
2018-02-07T11:54:55.345Z,9.18
2018-02-07T11:57:22.936Z,11.68
2018-02-07T11:59:50.170Z,12.77
2018-02-07T12:02:17.470Z,14.23
2018-02-07T12:04:44.773Z,13.10
2018-02-07T12:07:12.858Z,11.98
2018-02-07T12:09:40.149Z,12.43
2018-02-07T12:12:07.872Z,11.38
2018-02-07T12:14:35.521Z,12.43
2018-02-07T12:17:03.708Z,11.95
2018-02-07T12:19:31.142Z,12.93
2018-02-07T12:21:58.744Z,11.75
2018-02-07T12:24:25.971Z,11.27
2018-02-07T12:26:53.172Z,14.73
2018-02-07T12:29:20.553Z,14.32
2018-02-07T12:31:47.859Z,11.38
2018-02-07T12:34:15.330Z,12.13
2018-02-07T12:36:42.489Z,11.82
2018-02-07T12:39:09.694Z,11.50
2018-02-07T12:41:36.798Z,9.75
2018-02-07T12:44:05.028Z,11.25
2018-02-07T12:46:32.596Z,12.93
2018-02-07T12:49:00.154Z,12.60
2018-02-07T12:51:27.733Z,12.48
2018-02-07T12:53:55.031Z,14.25
2018-02-07T12:56:22.935Z,14.23
2018-02-07T12:58:50.263Z,13.93
2018-02-07T13:01:17.533Z,12.43
2018-02-07T13:03:44.725Z,16.37
2018-02-07T13:06:12.353Z,11.55
2018-02-07T13:08:39.654Z,12.23
2018-02-07T13:11:07.289Z,12.40
2018-02-07T13:13:34.963Z,12.55
2018-02-07T13:16:02.390Z,12.80
2018-02-07T13:18:29.531Z,13.65
2018-02-07T13:20:56.821Z,13.40
2018-02-07T13:23:23.949Z,13.80
2018-02-07T13:25:51.129Z,12.50
2018-02-07T13:28:18.294Z,11.80
2018-02-07T13:30:45.658Z,14.90
2018-02-07T13:33:13.234Z,11.87
2018-02-07T13:35:40.512Z,12.37
2018-02-07T13:38:07.650Z,12.53
2018-02-07T13:40:34.649Z,11.33
2018-02-07T13:43:02.014Z,11.83
2018-02-07T13:45:32.738Z,11.53
2018-02-07T13:48:00.233Z,11.73
2018-02-07T13:50:27.522Z,11.73
2018-02-07T13:52:54.991Z,12.17
2018-02-07T13:55:22.041Z,10.93
2018-02-07T13:57:49.582Z,11.20
2018-02-07T14:00:16.822Z,11.60
2018-02-07T14:02:44.095Z,10.40
2018-02-07T14:05:11.138Z,11.60
2018-02-07T14:07:38.190Z,12.40
2018-02-07T14:10:06.447Z,13.23
2018-02-07T14:12:33.936Z,14.33
2018-02-07T14:15:01.465Z,13.77
2018-02-07T14:17:28.718Z,14.60
2018-02-07T14:19:55.966Z,14.10
2018-02-07T14:22:22.991Z,12.77
2018-02-07T14:24:50.180Z,12.00
2018-02-07T14:27:17.222Z,14.40
2018-02-07T14:29:44.586Z,17.77
2018-02-07T14:32:11.814Z,15.75
2018-02-07T14:34:38.873Z,18.17
2018-02-07T14:37:06.182Z,25.00
2018-02-07T14:39:34.197Z,18.93
2018-02-07T14:42:01.593Z,18.12
2018-02-07T14:44:28.875Z,17.75
2018-02-07T14:46:56.293Z,17.30
2018-02-07T14:49:23.554Z,17.42
2018-02-07T14:51:50.951Z,18.77
2018-02-07T14:54:19.147Z,16.30
2018-02-07T14:56:46.314Z,17.35
2018-02-07T14:59:13.870Z,17.40
2018-02-07T15:01:41.319Z,18.37
2018-02-07T15:04:09.353Z,17.27
2018-02-07T15:06:37.156Z,19.17
2018-02-07T15:09:04.826Z,16.35
2018-02-07T15:11:31.974Z,18.92
2018-02-07T15:13:59.302Z,18.60
2018-02-07T15:16:26.254Z,18.80
2018-02-07T15:18:53.947Z,22.05
2018-02-07T15:21:21.294Z,21.73
2018-02-07T15:23:48.419Z,20.12
2018-02-07T15:26:15.904Z,21.85
2018-02-07T15:28:43.352Z,22.80
2018-02-07T15:31:10.803Z,22.10
2018-02-07T15:33:38.014Z,21.42
2018-02-07T15:36:05.081Z,20.23
2018-02-07T15:38:32.346Z,20.95
2018-02-07T15:40:59.510Z,21.20
2018-02-07T15:43:26.811Z,24.73
2018-02-07T15:45:54.226Z,23.12
2018-02-07T15:48:21.372Z,23.25
2018-02-07T15:50:48.546Z,23.20
2018-02-07T15:53:15.393Z,22.67
2018-02-07T15:55:42.908Z,23.27
2018-02-07T15:58:10.374Z,23.27
2018-02-07T16:00:37.428Z,21.92
2018-02-07T16:03:04.539Z,24.63
2018-02-07T16:05:31.634Z,24.40
2018-02-07T16:07:58.950Z,24.42
2018-02-07T16:10:25.878Z,25.05
2018-02-07T16:12:53.310Z,28.35
2018-02-07T16:15:20.652Z,28.15
2018-02-07T16:17:48.107Z,29.12
2018-02-07T16:20:15.341Z,28.58
2018-02-07T16:22:42.786Z,33.13
2018-02-07T16:25:10.098Z,25.52
2018-02-07T16:27:37.202Z,25.75
2018-02-07T16:30:04.321Z,24.80
2018-02-07T16:32:31.446Z,26.30
2018-02-07T16:34:58.862Z,27.65
2018-02-07T16:37:26.154Z,26.67
2018-02-07T16:39:53.885Z,27.30
2018-02-07T16:42:21.189Z,22.58
2018-02-07T16:44:48.202Z,24.55
2018-02-07T16:47:15.341Z,25.12
2018-02-07T16:49:42.774Z,25.77
2018-02-07T16:52:10.352Z,25.85
2018-02-07T16:54:37.565Z,30.75
2018-02-07T16:57:04.855Z,28.23
2018-02-07T16:59:32.086Z,26.23
2018-02-07T17:01:59.303Z,23.45
2018-02-07T17:04:26.642Z,25.20
2018-02-07T17:06:54.158Z,26.17
2018-02-07T17:09:21.732Z,25.95
2018-02-07T17:11:49.242Z,26.05
2018-02-07T17:14:16.719Z,26.37
2018-02-07T17:16:44.467Z,24.90
2018-02-07T17:19:11.665Z,26.77
2018-02-07T17:21:38.965Z,28.08
2018-02-07T17:24:06.464Z,26.75
2018-02-07T17:26:33.779Z,27.30
2018-02-07T17:29:01.346Z,27.60
2018-02-07T17:31:28.751Z,28.02
2018-02-07T17:33:56.029Z,28.40
2018-02-07T17:36:23.685Z,28.33
2018-02-07T17:38:51.099Z,30.25
2018-02-07T17:41:18.202Z,30.25
2018-02-07T17:43:45.706Z,28.55
2018-02-07T17:46:13.011Z,29.70
2018-02-07T17:48:40.382Z,31.67
2018-02-07T17:51:07.341Z,31.85
2018-02-07T17:53:34.599Z,30.60
2018-02-07T17:56:01.650Z,31.42
2018-02-07T17:58:28.731Z,30.92
2018-02-07T18:00:55.735Z,31.55
2018-02-07T18:03:23.782Z,34.88
2018-02-07T18:05:51.414Z,30.88
2018-02-07T18:08:18.868Z,30.50
2018-02-07T18:10:46.135Z,30.20
2018-02-07T18:13:13.402Z,33.55
2018-02-07T18:15:40.724Z,34.47
2018-02-07T18:18:08.094Z,31.95
2018-02-07T18:20:35.200Z,32.25
2018-02-07T18:23:02.734Z,34.38
2018-02-07T18:25:30.093Z,28.77
2018-02-07T18:27:57.398Z,27.80
2018-02-07T18:30:25.286Z,30.20
2018-02-07T18:32:52.819Z,29.50
2018-02-07T18:35:19.776Z,27.35
2018-02-07T18:37:47.022Z,27.17
2018-02-07T18:40:14.290Z,28.85
2018-02-07T18:42:41.533Z,27.60
2018-02-07T18:45:08.825Z,28.35
2018-02-07T18:47:36.174Z,26.62
2018-02-07T18:50:03.475Z,28.65
2018-02-07T18:52:30.597Z,30.70
2018-02-07T18:54:57.708Z,31.30
2018-02-07T18:57:25.314Z,32.47
2018-02-07T18:59:52.424Z,29.67
2018-02-07T19:02:19.999Z,31.35
2018-02-07T19:04:47.218Z,37.00
2018-02-07T19:07:14.666Z,30.92
2018-02-07T19:09:41.866Z,32.83
2018-02-07T19:12:08.825Z,31.98
2018-02-07T19:14:35.806Z,33.97
2018-02-07T19:17:03.091Z,30.27
2018-02-07T19:19:30.011Z,31.70
2018-02-07T19:21:57.283Z,31.08
2018-02-07T19:24:24.537Z,33.17
2018-02-07T19:26:51.856Z,32.55
2018-02-07T19:29:19.097Z,30.37
2018-02-07T19:31:46.330Z,28.85
2018-02-07T19:34:13.845Z,28.77
2018-02-07T19:36:41.369Z,29.42
2018-02-07T19:39:08.562Z,28.40
2018-02-07T19:41:35.989Z,29.77
2018-02-07T19:44:03.893Z,28.95
2018-02-07T19:46:31.135Z,28.40
2018-02-07T19:48:58.225Z,29.08
2018-02-07T19:51:25.749Z,31.27
2018-02-07T19:53:53.198Z,30.73
2018-02-07T19:56:20.685Z,29.23
2018-02-07T19:58:48.378Z,32.70
2018-02-07T20:01:15.782Z,31.55
2018-02-07T20:03:43.247Z,30.10
2018-02-07T20:06:10.626Z,30.65
2018-02-07T20:08:38.106Z,32.75
2018-02-07T20:11:05.137Z,34.08
2018-02-07T20:13:32.396Z,31.95
2018-02-07T20:15:59.760Z,30.70
2018-02-07T20:18:26.983Z,32.38
2018-02-07T20:20:54.735Z,32.38
2018-02-07T20:23:21.938Z,39.13
2018-02-07T20:25:49.310Z,44.40
2018-02-07T20:28:16.953Z,34.97
2018-02-07T20:30:44.325Z,30.17
2018-02-07T20:33:11.558Z,35.78
2018-02-07T20:35:38.834Z,36.25
2018-02-07T20:38:05.959Z,38.92
2018-02-07T20:40:33.598Z,34.60
2018-02-07T20:43:00.900Z,34.20
2018-02-07T20:45:28.507Z,32.38
2018-02-07T20:47:55.678Z,34.33
2018-02-07T20:50:23.270Z,35.50
2018-02-07T20:52:50.750Z,35.75
2018-02-07T20:55:17.730Z,36.80
2018-02-07T20:57:45.354Z,35.38
2018-02-07T21:00:12.591Z,31.60
2018-02-07T21:02:40.845Z,31.50
2018-02-07T21:05:08.279Z,32.53
2018-02-07T21:07:35.817Z,31.50
2018-02-07T21:10:03.381Z,35.13
2018-02-07T21:12:30.425Z,30.27
2018-02-07T21:14:57.765Z,35.75
2018-02-07T21:17:32.402Z,31.83
2018-02-07T21:20:00.109Z,34.65
2018-02-07T21:22:27.277Z,34.40
2018-02-07T21:24:54.250Z,33.78
2018-02-07T21:27:22.222Z,34.65
2018-02-07T21:29:49.526Z,32.85
2018-02-07T21:32:17.794Z,35.80
2018-02-07T21:34:45.081Z,33.03
2018-02-07T21:34:49.761Z,21.33
2018-02-07T21:37:12.594Z,34.47
2018-02-07T21:37:16.779Z,21.50
2018-02-07T21:39:40.152Z,34.65
2018-02-07T21:42:07.624Z,38.10
2018-02-07T21:44:35.326Z,39.67
2018-02-07T21:47:02.820Z,36.65
2018-02-07T21:49:30.120Z,31.55
2018-02-07T21:51:57.579Z,31.70
2018-02-07T21:54:24.992Z,30.85
2018-02-07T21:56:52.849Z,29.92
2018-02-07T21:59:20.095Z,31.60
2018-02-07T22:01:47.405Z,29.63
2018-02-07T22:04:14.739Z,30.15
2018-02-07T22:06:42.090Z,26.23
2018-02-07T22:09:09.398Z,26.92
2018-02-07T22:11:37.077Z,27.33
2018-02-07T22:14:04.376Z,29.05
2018-02-07T22:16:31.562Z,30.20
2018-02-07T22:18:58.870Z,29.90
2018-02-07T22:21:26.271Z,29.63
2018-02-07T22:23:53.886Z,30.60
2018-02-07T22:26:21.269Z,31.45
2018-02-07T22:28:48.498Z,28.25
2018-02-07T22:31:15.930Z,31.70
2018-02-07T22:33:43.498Z,32.72
2018-02-07T22:36:10.503Z,30.05
2018-02-07T22:38:37.669Z,31.20
2018-02-07T22:41:05.334Z,30.65
2018-02-07T22:43:32.821Z,32.00
2018-02-07T22:46:00.628Z,31.00
2018-02-07T22:48:28.006Z,32.15
2018-02-07T22:50:55.675Z,31.45
2018-02-07T22:53:23.613Z,30.15
2018-02-07T22:55:50.966Z,29.98
2018-02-07T22:58:18.264Z,30.40
2018-02-07T23:00:45.386Z,30.67
2018-02-07T23:03:12.741Z,33.35
2018-02-07T23:05:40.245Z,33.42
2018-02-07T23:08:07.425Z,35.42
2018-02-07T23:10:34.856Z,36.83
2018-02-07T23:13:02.048Z,36.17
2018-02-07T23:15:29.235Z,37.10
2018-02-07T23:17:56.791Z,35.13
2018-02-07T23:20:23.900Z,37.97
2018-02-07T23:22:51.162Z,36.00
2018-02-07T23:25:18.473Z,37.08
2018-02-07T23:27:46.114Z,37.35
2018-02-07T23:30:13.747Z,38.22
2018-02-07T23:32:41.114Z,38.25
2018-02-07T23:35:08.210Z,38.03
2018-02-07T23:37:35.892Z,35.75
2018-02-07T23:40:03.298Z,37.20
2018-02-07T23:42:30.697Z,36.42
2018-02-07T23:44:58.301Z,36.17
2018-02-07T23:47:25.498Z,31.90
2018-02-07T23:49:52.845Z,33.92
2018-02-07T23:52:20.196Z,34.53
2018-02-07T23:54:47.686Z,34.70
2018-02-07T23:57:14.986Z,35.53
2018-02-07T23:59:42.131Z,36.03
